Time;durP1;ratioP1;P1;durP2;ratioP2;P2;SDS_P1;SDS_P2;PMS_P1;PMS_P2;Temp;Humidity;BMP_temperature;BMP_pressure;BME280_temperature;BME280_humidity;BME280_pressure;Samples;Min_cycle;Max_cycle;Signal;HPM_P1;HPM_P2
2023/10/08 00:03:10;;;;;;;2.83;0.50;;;;;;;8.87;57.43;101804.03;5072651;28;20128;-73
2023/10/08 00:05:39;;;;;;;1.38;0.60;;;;;;;8.83;57.85;101800.00;5071237;28;20028;-72
2023/10/08 00:08:06;;;;;;;1.63;0.60;;;;;;;8.81;57.92;101807.38;5070766;28;20487;-72
2023/10/08 00:10:42;;;;;;;0.98;0.50;;;;;;;8.54;57.34;101790.47;5054506;28;20054;-72
2023/10/08 00:13:09;;;;;;;0.52;0.40;;;;;;;8.73;56.71;101813.53;5078526;28;20107;-73
2023/10/08 00:15:41;;;;;;;1.35;0.50;;;;;;;8.66;56.74;101810.66;5088200;28;20028;-73
2023/10/08 00:18:07;;;;;;;0.95;0.50;;;;;;;8.46;57.19;101810.06;5105707;28;20031;-73
2023/10/08 00:20:47;;;;;;;2.00;0.60;;;;;;;8.42;57.45;101826.66;5091817;28;20387;-72
2023/10/08 00:23:15;;;;;;;1.20;0.50;;;;;;;8.19;57.93;101789.63;5090257;28;20106;-73
2023/10/08 00:25:40;;;;;;;0.90;0.45;;;;;;;8.14;57.13;101816.06;5073879;28;20479;-72
2023/10/08 00:28:12;;;;;;;1.00;0.50;;;;;;;8.24;57.18;101826.69;5090454;28;20085;-73
2023/10/08 00:30:41;;;;;;;1.73;0.52;;;;;;;8.16;57.27;101829.31;5091439;28;20495;-73
2023/10/08 00:33:08;;;;;;;0.85;0.40;;;;;;;8.21;56.11;101830.53;5086301;28;20063;-72
2023/10/08 00:35:41;;;;;;;1.00;0.45;;;;;;;8.23;56.00;101828.53;5069692;28;20105;-72
2023/10/08 00:38:14;;;;;;;1.73;0.50;;;;;;;8.35;55.84;101837.16;5070389;28;20032;-72
2023/10/08 00:40:46;;;;;;;0.47;0.30;;;;;;;8.37;55.25;101845.03;5089039;28;20028;-72
2023/10/08 00:43:35;;;;;;;1.00;0.40;;;;;;;8.42;54.72;101845.44;5074150;28;20032;-72
2023/10/08 00:46:06;;;;;;;0.70;0.40;;;;;;;8.30;54.23;101860.91;5084439;28;20032;-73
2023/10/08 00:48:36;;;;;;;1.05;0.35;;;;;;;8.48;54.35;101855.53;5077050;28;20154;-72
2023/10/08 00:54:10;;;;;;;0.90;0.45;;;;;;;8.42;53.26;101859.69;5091312;28;20056;-73
2023/10/08 00:59:23;;;;;;;0.63;0.35;;;;;;;8.19;54.86;101877.28;5091979;28;20069;-72
2023/10/08 01:02:04;;;;;;;1.17;0.50;;;;;;;8.16;54.43;101862.34;5093064;28;20047;-72
2023/10/08 01:04:33;;;;;;;0.70;0.35;;;;;;;8.25;55.19;101882.00;5107079;28;20111;-73
2023/10/08 01:07:10;;;;;;;0.73;0.45;;;;;;;8.34;55.54;101873.00;5093428;28;20032;-72
2023/10/08 01:09:37;;;;;;;0.77;0.30;;;;;;;8.27;55.58;101880.00;5088991;28;20059;-73
2023/10/08 01:14:49;;;;;;;1.13;0.45;;;;;;;8.33;55.50;101890.09;5071538;28;20039;-72
2023/10/08 01:17:16;;;;;;;0.70;0.32;;;;;;;8.35;55.64;101893.47;5071250;28;20033;-73
2023/10/08 01:19:50;;;;;;;0.68;0.30;;;;;;;8.38;54.79;101895.88;5071567;28;20027;-72
2023/10/08 01:22:18;;;;;;;1.75;0.40;;;;;;;8.31;55.63;101896.59;5082326;28;20060;-72
2023/10/08 01:24:49;;;;;;;1.20;0.40;;;;;;;8.21;55.59;101894.03;5055156;28;20020;-72
2023/10/08 01:27:21;;;;;;;0.22;0.20;;;;;;;8.27;55.45;101901.44;5073330;28;20028;-72
2023/10/08 01:29:49;;;;;;;1.15;0.40;;;;;;;8.27;56.18;101893.41;5074688;28;20043;-72
2023/10/08 01:32:16;;;;;;;0.28;0.20;;;;;;;8.30;55.99;101900.28;5073722;28;20048;-72
2023/10/08 01:34:45;;;;;;;1.63;0.60;;;;;;;8.21;56.36;101896.72;5074701;28;20107;-72
2023/10/08 01:37:19;;;;;;;1.88;0.40;;;;;;;8.32;56.24;101903.69;5073110;28;20470;-72
2023/10/08 01:39:50;;;;;;;0.77;0.30;;;;;;;8.31;56.12;101900.16;5056107;28;20032;-73
2023/10/08 01:42:17;;;;;;;1.45;0.40;;;;;;;8.20;56.49;101863.69;5075533;28;20053;-73
2023/10/08 01:44:48;;;;;;;0.40;0.20;;;;;;;8.58;56.25;101925.16;5073196;28;20017;-72
2023/10/08 01:47:15;;;;;;;0.65;0.30;;;;;;;8.61;56.08;101908.72;5082773;28;20055;-73
2023/10/08 01:49:46;;;;;;;1.30;0.50;;;;;;;8.71;56.19;101901.44;5076805;28;20035;-72
2023/10/08 01:52:21;;;;;;;1.75;0.50;;;;;;;8.77;56.23;101924.91;5086644;28;20047;-72
2023/10/08 01:54:48;;;;;;;0.60;0.30;;;;;;;8.49;56.80;101893.94;5100677;28;20188;-72
2023/10/08 01:57:14;;;;;;;0.60;0.20;;;;;;;8.82;56.84;101919.91;5100621;28;20063;-73
2023/10/08 01:59:40;;;;;;;0.60;0.30;;;;;;;8.76;56.33;101933.97;5078407;28;20035;-72
2023/10/08 02:02:06;;;;;;;1.23;0.30;;;;;;;8.64;55.75;101892.31;5096410;28;20032;-73
2023/10/08 02:04:35;;;;;;;1.45;0.30;;;;;;;8.90;56.33;101909.22;5094084;28;20368;-72
2023/10/08 02:07:01;;;;;;;0.70;0.30;;;;;;;8.85;55.67;101891.94;5077256;28;20123;-72
2023/10/08 02:09:26;;;;;;;0.63;0.30;;;;;;;9.17;54.74;101937.72;5076296;28;20540;-73
2023/10/08 02:11:56;;;;;;;0.60;0.30;;;;;;;9.00;54.58;101929.72;5092809;28;20028;-72
2023/10/08 02:14:22;;;;;;;0.80;0.30;;;;;;;9.01;55.05;101950.22;5094971;28;20497;-73
2023/10/08 02:16:49;;;;;;;0.50;0.20;;;;;;;8.96;55.33;101955.22;5092169;28;20032;-73
2023/10/08 02:19:18;;;;;;;0.70;0.30;;;;;;;8.77;53.20;101958.97;5093439;28;20032;-72
2023/10/08 02:21:46;;;;;;;1.02;0.20;;;;;;;8.88;54.37;101958.72;5099363;28;20020;-73
2023/10/08 02:24:12;;;;;;;1.35;0.40;;;;;;;8.88;53.52;101972.97;5096044;28;20050;-73
2023/10/08 02:26:38;;;;;;;0.63;0.25;;;;;;;9.00;53.07;101968.16;5094023;28;20027;-72
2023/10/08 02:29:10;;;;;;;1.05;0.30;;;;;;;9.08;51.83;101970.06;5083626;28;20055;-73
2023/10/08 02:31:39;;;;;;;0.82;0.40;;;;;;;9.04;51.94;101979.41;5083364;28;20032;-73
2023/10/08 02:34:08;;;;;;;0.88;0.38;;;;;;;9.00;52.91;101949.34;5100197;28;20049;-73
2023/10/08 02:36:37;;;;;;;0.52;0.20;;;;;;;9.07;53.15;101984.47;5106582;28;20032;-72
2023/10/08 02:39:13;;;;;;;0.50;0.32;;;;;;;9.09;52.90;101964.50;5098425;28;20380;-73
2023/10/08 02:41:41;;;;;;;0.30;0.20;;;;;;;9.14;52.67;101969.41;5078474;28;20028;-73
2023/10/08 02:44:11;;;;;;;2.25;0.35;;;;;;;9.33;52.50;101990.63;5094525;28;20031;-73
2023/10/08 02:46:40;;;;;;;0.65;0.30;;;;;;;9.16;52.73;101999.63;5094360;28;20031;-71
2023/10/08 02:49:10;;;;;;;0.63;0.30;;;;;;;9.16;52.46;101996.94;5093556;28;20114;-73
2023/10/08 02:51:35;;;;;;;0.85;0.40;;;;;;;9.23;52.98;101995.28;5093574;28;20089;-72
2023/10/08 02:54:05;;;;;;;0.68;0.30;;;;;;;9.28;52.50;101981.38;5091917;28;20035;-72
2023/10/08 02:56:32;;;;;;;0.93;0.40;;;;;;;9.01;51.89;101988.66;5092736;28;20032;-72
2023/10/08 02:58:57;;;;;;;1.48;0.50;;;;;;;9.07;51.02;102016.69;5075850;28;20028;-72
2023/10/08 03:01:23;;;;;;;1.08;0.30;;;;;;;9.18;51.93;102008.38;5092289;28;20791;-72
2023/10/08 03:03:48;;;;;;;0.77;0.30;;;;;;;9.37;51.89;102020.69;5091601;28;20024;-73
2023/10/08 03:06:14;;;;;;;1.88;0.40;;;;;;;9.20;52.31;102000.13;5091523;28;20111;-72
2023/10/08 03:08:41;;;;;;;1.25;0.38;;;;;;;9.35;51.36;102028.09;5075314;28;20039;-73
2023/10/08 03:11:16;;;;;;;0.70;0.45;;;;;;;9.36;50.87;102021.69;5092380;28;20028;-73
2023/10/08 03:13:52;;;;;;;1.02;0.40;;;;;;;9.25;51.23;102024.69;5102077;28;20043;-73
2023/10/08 03:16:21;;;;;;;0.50;0.30;;;;;;;9.27;50.16;102028.03;5101436;28;20474;-73
2023/10/08 03:18:50;;;;;;;1.05;0.40;;;;;;;9.16;51.63;102023.78;5096660;28;20028;-73
2023/10/08 03:21:33;;;;;;;0.80;0.38;;;;;;;9.24;51.40;102028.34;5106592;28;20038;-72
2023/10/08 03:23:58;;;;;;;0.22;0.20;;;;;;;9.20;51.22;102038.56;5098887;28;20043;-72
2023/10/08 03:26:33;;;;;;;0.82;0.35;;;;;;;9.18;51.83;102037.91;5096695;28;20032;-72
2023/10/08 03:29:07;;;;;;;;;;;;;;;9.07;50.85;102038.16;5107532;28;20095;-73
2023/10/08 03:34:18;;;;;;;0.98;0.40;;;;;;;9.10;51.15;102011.81;5094210;28;20457;-73
2023/10/08 03:36:45;;;;;;;0.70;0.32;;;;;;;9.12;50.78;102030.47;5075701;28;20055;-73
2023/10/08 03:39:15;;;;;;;0.90;0.40;;;;;;;9.06;51.10;102028.44;5092260;28;20509;-72
2023/10/08 03:41:41;;;;;;;1.08;0.40;;;;;;;8.89;50.91;102057.84;5076814;28;20134;-73
2023/10/08 03:44:12;;;;;;;1.15;0.40;;;;;;;9.09;51.70;102055.81;5091409;28;20474;-73
2023/10/08 03:46:40;;;;;;;1.05;0.45;;;;;;;8.79;52.05;102057.13;5091687;28;20056;-72
2023/10/08 03:49:14;;;;;;;0.60;0.30;;;;;;;8.68;52.08;102046.66;5090344;28;20020;-72
2023/10/08 03:51:39;;;;;;;0.88;0.50;;;;;;;8.45;52.18;102043.59;5091063;28;20081;-72
2023/10/08 03:56:36;;;;;;;1.13;0.40;;;;;;;8.34;51.84;102019.66;5092831;28;20020;-73
2023/10/08 03:59:14;;;;;;;1.38;0.40;;;;;;;8.60;51.90;102058.13;5092292;28;20028;-72
2023/10/08 04:01:41;;;;;;;1.05;0.40;;;;;;;8.43;52.82;102049.13;5091296;28;20133;-72
2023/10/08 04:04:12;;;;;;;0.88;0.40;;;;;;;8.47;53.25;102058.53;5093240;28;20019;-72
2023/10/08 04:06:38;;;;;;;2.13;0.40;;;;;;;8.43;53.74;102064.38;5091967;28;20035;-72
2023/10/08 04:11:43;;;;;;;1.15;0.45;;;;;;;8.66;54.39;102070.94;5093543;28;20039;-73
2023/10/08 04:14:08;;;;;;;1.08;0.60;;;;;;;8.79;54.32;102062.47;5081647;28;20052;-73
2023/10/08 04:16:37;;;;;;;0.80;0.40;;;;;;;8.90;54.16;102061.38;5075373;28;20040;-73
2023/10/08 04:19:03;;;;;;;1.40;0.43;;;;;;;8.96;54.89;102068.81;5084085;28;20051;-72
2023/10/08 04:21:31;;;;;;;0.63;0.30;;;;;;;8.93;55.60;102066.44;5073676;28;20035;-72
2023/10/08 04:23:57;;;;;;;0.75;0.40;;;;;;;8.93;54.48;102053.84;5089690;28;20558;-73
2023/10/08 04:26:25;;;;;;;0.52;0.30;;;;;;;9.00;54.24;102074.69;5098382;28;20038;-73
2023/10/08 04:28:58;;;;;;;1.70;0.30;;;;;;;9.19;53.58;102061.06;5098005;28;20028;-73
2023/10/08 04:31:35;;;;;;;0.73;0.30;;;;;;;9.29;53.51;102074.38;5071971;28;20037;-72
2023/10/08 04:34:04;;;;;;;0.43;0.30;;;;;;;9.17;54.05;102081.84;5072629;28;20021;-73
2023/10/08 04:36:32;;;;;;;1.35;0.30;;;;;;;9.05;53.70;102070.56;5070729;28;20428;-73
2023/10/08 04:39:04;;;;;;;1.25;0.25;;;;;;;9.38;53.52;102090.38;5053813;28;20040;-73
2023/10/08 04:41:29;;;;;;;0.95;0.38;;;;;;;9.34;53.58;102102.47;5055582;28;20035;-73
2023/10/08 04:43:55;;;;;;;0.63;0.40;;;;;;;9.32;52.16;102104.44;5072496;28;20100;-73
2023/10/08 04:47:07;;;;;;;1.02;0.40;;;;;;;9.35;51.65;102105.97;5072327;28;20140;-72
2023/10/08 04:49:17;;;;;;;3.03;0.40;;;;;;;9.38;51.73;102117.25;5081391;28;20028;-73
2023/10/08 04:51:46;;;;;;;1.02;0.32;;;;;;;9.33;51.50;102127.63;5071753;28;20024;-72
2023/10/08 04:54:18;;;;;;;1.27;0.35;;;;;;;9.38;50.75;102119.94;5053912;28;20033;-72
2023/10/08 04:56:43;;;;;;;0.60;0.40;;;;;;;9.17;51.33;102095.28;5054262;28;20552;-73
2023/10/08 04:59:11;;;;;;;1.20;0.35;;;;;;;9.18;51.84;102107.72;5091060;28;20040;-73
2023/10/08 05:02:12;;;;;;;1.00;0.40;;;;;;;9.36;51.67;102140.72;5066269;28;20036;-73
2023/10/08 05:04:46;;;;;;;1.20;0.40;;;;;;;9.22;50.96;102127.88;5095424;28;20028;-73
2023/10/08 05:07:21;;;;;;;0.60;0.32;;;;;;;9.25;50.76;102146.38;5094672;28;20558;-73
2023/10/08 05:12:37;;;;;;;1.40;0.40;;;;;;;9.34;51.30;102145.44;5104447;28;20024;-72
2023/10/08 05:20:40;;;;;;;1.75;0.40;;;;;;;9.09;49.86;102162.38;5097767;28;20350;-73
2023/10/08 05:39:42;;;;;;;1.20;0.43;;;;;;;8.06;53.80;102198.53;5081951;28;20120;-73
2023/10/08 05:42:20;;;;;;;2.85;0.50;;;;;;;8.18;53.47;102205.38;5092582;28;20100;-73
2023/10/08 05:44:50;;;;;;;1.50;0.40;;;;;;;8.15;53.87;102197.63;5077490;28;20483;-73
2023/10/08 05:50:09;;;;;;;5.85;1.50;;;;;;;8.19;54.27;102197.19;5093862;28;20035;-73
2023/10/08 05:52:50;;;;;;;1.27;0.70;;;;;;;8.17;53.88;102201.00;5061156;28;20113;-73
2023/10/08 05:55:26;;;;;;;0.63;0.30;;;;;;;8.47;53.74;102203.38;5073075;28;20031;-73
2023/10/08 05:58:13;;;;;;;0.52;0.30;;;;;;;8.68;53.30;102196.91;5082849;28;20148;-72
2023/10/08 06:03:32;;;;;;;1.55;0.40;;;;;;;8.93;52.77;102192.59;5085327;28;20036;-73
2023/10/08 06:08:51;;;;;;;1.23;0.40;;;;;;;9.00;52.39;102160.59;5072907;28;20021;-73
2023/10/08 06:11:37;;;;;;;0.60;0.30;;;;;;;9.20;52.23;102194.34;5056701;28;20031;-73
2023/10/08 06:14:13;;;;;;;0.52;0.40;;;;;;;9.39;52.17;102196.84;5074500;28;20123;-73
2023/10/08 06:16:43;;;;;;;1.23;0.50;;;;;;;9.37;51.61;102180.03;5083811;28;20012;-73
2023/10/08 06:19:09;;;;;;;1.00;0.35;;;;;;;9.57;51.30;102195.94;5079984;28;20031;-73
2023/10/08 06:21:38;;;;;;;0.85;0.30;;;;;;;9.70;51.61;102206.25;5074954;28;20051;-73
2023/10/08 06:24:08;;;;;;;0.68;0.40;;;;;;;9.49;52.48;102207.47;5064440;28;20035;-73
2023/10/08 06:26:42;;;;;;;0.82;0.40;;;;;;;9.40;52.09;102220.03;5082762;28;20458;-73
2023/10/08 06:29:26;;;;;;;2.28;0.50;;;;;;;9.18;52.63;102213.31;5056057;28;20036;-73
2023/10/08 06:31:55;;;;;;;1.65;0.45;;;;;;;9.10;52.63;102225.81;5078005;28;20062;-73
2023/10/08 06:34:21;;;;;;;0.80;0.40;;;;;;;9.17;52.69;102227.75;5059578;28;20044;-73
2023/10/08 06:36:48;;;;;;;1.08;0.45;;;;;;;9.13;52.69;102231.72;5072179;28;20498;-73
2023/10/08 06:39:18;;;;;;;0.60;0.30;;;;;;;9.13;53.72;102229.03;5071170;28;20036;-73
2023/10/08 06:41:46;;;;;;;0.77;0.50;;;;;;;9.05;53.38;102238.88;5071585;28;20070;-73
2023/10/08 06:44:15;;;;;;;1.33;0.50;;;;;;;9.32;53.16;102243.28;5054895;28;20077;-73
2023/10/08 06:46:41;;;;;;;1.27;0.40;;;;;;;9.31;53.46;102239.75;5073061;28;20139;-73
2023/10/08 06:49:11;;;;;;;1.10;0.50;;;;;;;9.40;52.28;102241.53;5072439;28;20028;-73
2023/10/08 06:51:41;;;;;;;2.25;0.60;;;;;;;9.52;52.67;102249.31;5071975;28;20044;-73
2023/10/08 06:54:10;;;;;;;1.30;0.50;;;;;;;9.57;52.51;102239.78;5055764;28;20516;-73
2023/10/08 06:56:36;;;;;;;1.08;0.40;;;;;;;9.66;52.83;102240.69;5072493;28;20040;-73
2023/10/08 06:59:02;;;;;;;1.05;0.40;;;;;;;9.57;52.52;102238.94;5072994;28;20502;-74
2023/10/08 07:01:38;;;;;;;0.90;0.50;;;;;;;9.61;51.48;102243.00;5055205;28;20086;-73
2023/10/08 07:04:11;;;;;;;2.92;0.35;;;;;;;9.71;50.92;102249.13;5073159;28;20515;-74
2023/10/08 07:06:41;;;;;;;1.20;0.43;;;;;;;9.84;50.38;102252.22;5071953;28;20281;-74
2023/10/08 07:09:56;;;;;;;1.40;0.45;;;;;;;9.95;49.93;102252.97;5079586;28;20832;-73
2023/10/08 07:11:54;;;;;;;1.00;0.50;;;;;;;10.07;49.59;102247.16;5075341;28;20471;-73
2023/10/08 07:14:22;;;;;;;0.70;0.43;;;;;;;10.16;49.60;102252.56;5075522;28;20093;-74
2023/10/08 07:16:52;;;;;;;3.70;0.40;;;;;;;10.25;49.86;102262.34;5079584;28;20035;-74
2023/10/08 07:19:18;;;;;;;2.03;0.40;;;;;;;10.25;50.00;102262.34;5092111;28;20466;-74
2023/10/08 07:21:46;;;;;;;0.88;0.40;;;;;;;10.10;49.08;102241.44;5077174;28;20032;-74
2023/10/08 07:24:17;;;;;;;0.52;0.30;;;;;;;10.38;49.73;102262.78;5109797;28;20043;-74
2023/10/08 07:26:46;;;;;;;0.82;0.40;;;;;;;10.31;49.74;102254.50;5084369;28;20547;-74
2023/10/08 07:29:19;;;;;;;1.40;0.43;;;;;;;10.51;49.24;102267.72;5081525;28;20650;-74
2023/10/08 07:31:48;;;;;;;1.55;0.20;;;;;;;10.57;48.63;102269.75;5072728;28;20048;-74
2023/10/08 07:34:16;;;;;;;0.98;0.30;;;;;;;10.56;48.96;102285.06;5071176;28;20035;-74
2023/10/08 07:36:49;;;;;;;1.10;0.30;;;;;;;10.62;48.45;102288.94;5081825;28;20028;-74
2023/10/08 07:41:58;;;;;;;0.73;0.40;;;;;;;10.58;49.24;102299.19;5091872;28;20071;-74
2023/10/08 07:44:28;;;;;;;1.00;0.50;;;;;;;10.43;48.89;102273.03;5093406;28;20032;-74
2023/10/08 07:46:54;;;;;;;0.70;0.40;;;;;;;10.49;48.39;102302.00;5092553;28;20035;-74
2023/10/08 07:49:20;;;;;;;0.65;0.30;;;;;;;10.64;48.28;102294.19;5093422;28;20599;-74
2023/10/08 07:51:52;;;;;;;1.13;0.30;;;;;;;10.62;48.72;102280.03;5095413;28;20052;-74
2023/10/08 07:54:22;;;;;;;0.93;0.40;;;;;;;10.67;48.31;102297.38;5068943;28;20107;-73
2023/10/08 07:56:48;;;;;;;0.60;0.30;;;;;;;10.61;47.85;102275.66;5070921;28;20032;-74
2023/10/08 07:59:16;;;;;;;0.60;0.40;;;;;;;10.87;47.40;102308.72;5069904;28;20028;-74
2023/10/08 08:01:42;;;;;;;1.23;0.40;;;;;;;10.79;48.92;102298.78;5070788;28;20032;-74
2023/10/08 08:04:21;;;;;;;1.52;0.70;;;;;;;11.00;48.65;102305.56;5078057;28;20067;-74
2023/10/08 08:06:49;;;;;;;0.85;0.47;;;;;;;11.08;48.03;102304.72;5084557;28;20063;-74
2023/10/08 08:09:19;;;;;;;2.30;0.50;;;;;;;11.05;48.27;102313.97;5072248;28;20028;-74
2023/10/08 08:11:48;;;;;;;0.50;0.38;;;;;;;11.07;47.67;102319.19;5071780;28;20040;-74
2023/10/08 08:14:16;;;;;;;1.38;0.57;;;;;;;11.14;47.57;102315.66;5079200;28;20096;-74
2023/10/08 08:16:47;;;;;;;0.75;0.47;;;;;;;11.23;47.25;102320.06;5085568;28;20034;-74
2023/10/08 08:19:16;;;;;;;1.02;0.55;;;;;;;11.13;47.36;102308.59;5076507;28;20024;-74
2023/10/08 08:21:45;;;;;;;1.98;0.50;;;;;;;11.21;47.05;102321.25;5081785;28;20036;-74
2023/10/08 08:24:12;;;;;;;0.88;0.50;;;;;;;11.31;47.38;102334.56;5071724;28;20491;-74
2023/10/08 08:27:00;;;;;;;2.10;0.50;;;;;;;11.35;47.39;102322.44;5070788;28;20041;-74
2023/10/08 08:29:26;;;;;;;0.88;0.40;;;;;;;11.42;48.05;102351.25;5070751;28;20117;-74
2023/10/08 08:31:53;;;;;;;1.05;0.47;;;;;;;11.43;48.69;102347.53;5071746;28;20028;-74
2023/10/08 08:34:23;;;;;;;1.48;0.32;;;;;;;11.13;47.52;102345.50;5055957;28;20074;-74
2023/10/08 08:36:49;;;;;;;1.08;0.30;;;;;;;11.13;47.01;102345.50;5060711;28;20437;-74
2023/10/08 08:39:32;;;;;;;0.75;0.40;;;;;;;11.35;46.33;102355.59;5074722;28;20032;-74
2023/10/08 08:42:07;;;;;;;2.28;0.47;;;;;;;11.30;47.60;102360.66;5076953;28;20036;-74
2023/10/08 08:44:36;;;;;;;0.85;0.28;;;;;;;11.29;46.99;102349.06;5084189;28;20064;-74
2023/10/08 08:47:04;;;;;;;0.52;0.20;;;;;;;11.24;46.47;102345.16;5105777;28;20096;-74
2023/10/08 08:49:33;;;;;;;0.65;0.30;;;;;;;11.38;45.75;102349.03;5082802;28;20028;-74
2023/10/08 08:52:00;;;;;;;0.30;0.20;;;;;;;11.37;45.39;102356.28;5074925;28;20048;-74
2023/10/08 08:54:27;;;;;;;0.57;0.30;;;;;;;11.59;43.94;102364.72;5080942;28;20057;-74
2023/10/08 08:56:54;;;;;;;0.82;0.30;;;;;;;11.46;43.57;102367.94;5094552;28;20035;-74
2023/10/08 08:59:20;;;;;;;2.45;0.30;;;;;;;11.68;43.51;102366.41;5105214;28;20339;-74
2023/10/08 09:01:47;;;;;;;0.55;0.30;;;;;;;11.83;42.14;102363.91;5081236;28;20082;-75
2023/10/08 09:04:16;;;;;;;0.85;0.40;;;;;;;11.91;42.78;102370.16;5095972;28;20023;-74
2023/10/08 09:06:42;;;;;;;0.95;0.40;;;;;;;11.84;42.03;102373.69;5096809;28;20061;-74
2023/10/08 09:09:23;;;;;;;0.88;0.40;;;;;;;11.55;42.58;102348.03;5095772;28;20600;-74
2023/10/08 09:11:51;;;;;;;0.80;0.32;;;;;;;11.76;41.99;102361.88;5096392;28;20024;-74
2023/10/08 09:14:21;;;;;;;0.50;0.25;;;;;;;11.59;40.98;102357.50;5102443;28;20028;-74
2023/10/08 09:16:47;;;;;;;0.93;0.40;;;;;;;11.60;41.92;102372.66;5097621;28;20433;-73
2023/10/08 09:19:18;;;;;;;1.33;0.50;;;;;;;11.69;41.47;102374.34;5094620;28;20156;-74
2023/10/08 09:21:59;;;;;;;1.08;0.50;;;;;;;11.79;41.99;102376.03;5094325;28;20073;-74
2023/10/08 09:24:24;;;;;;;1.02;0.50;;;;;;;11.90;41.56;102386.53;5095936;28;20512;-74
2023/10/08 09:26:51;;;;;;;1.15;0.50;;;;;;;12.14;41.33;102389.19;5096163;28;20036;-74
2023/10/08 09:29:22;;;;;;;1.23;0.63;;;;;;;11.62;41.22;102319.44;5099558;28;20024;-75
2023/10/08 09:31:55;;;;;;;0.82;0.50;;;;;;;11.85;40.48;102389.72;5096099;28;20089;-75
2023/10/08 09:34:31;;;;;;;0.90;0.50;;;;;;;11.96;40.44;102394.78;5080474;28;20036;-74
2023/10/08 09:37:01;;;;;;;1.80;0.45;;;;;;;11.96;40.69;102383.16;5095671;28;20032;-74
2023/10/08 09:39:34;;;;;;;1.08;0.52;;;;;;;12.02;41.09;102384.31;5077078;28;20078;-74
2023/10/08 09:42:11;;;;;;;0.85;0.40;;;;;;;11.99;40.93;102388.22;5097577;28;20024;-74
2023/10/08 09:44:37;;;;;;;2.05;0.40;;;;;;;12.36;40.33;102381.41;5093952;28;20028;-74
2023/10/08 09:47:08;;;;;;;0.60;0.38;;;;;;;12.29;40.04;102369.63;5087696;28;20066;-73
2023/10/08 09:50:12;;;;;;;1.05;0.40;;;;;;;12.30;39.77;102363.19;5102830;28;20353;-74
2023/10/08 09:52:56;;;;;;;0.60;0.40;;;;;;;12.37;39.92;102383.09;5096554;28;20058;-74
2023/10/08 09:55:22;;;;;;;1.20;0.30;;;;;;;12.48;39.64;102398.91;5100057;28;20079;-74
2023/10/08 09:57:50;;;;;;;0.30;0.20;;;;;;;12.62;39.39;102398.22;5096869;28;20020;-73
2023/10/08 10:00:18;;;;;;;1.05;0.30;;;;;;;12.46;39.87;102398.25;5095707;28;20031;-75
2023/10/08 10:02:44;;;;;;;1.25;0.30;;;;;;;12.36;39.32;102371.44;5094368;28;20059;-75
2023/10/08 10:05:11;;;;;;;0.22;0.20;;;;;;;12.54;38.88;102389.28;5094657;28;20024;-74
2023/10/08 10:07:41;;;;;;;0.22;0.22;;;;;;;12.56;38.81;102377.31;5093664;28;20265;-73
2023/10/08 10:10:26;;;;;;;1.10;0.30;;;;;;;12.70;37.64;102400.03;5094589;28;20073;-74
2023/10/08 10:12:51;;;;;;;1.27;0.30;;;;;;;12.58;38.75;102406.81;5103654;28;20020;-75
2023/10/08 10:15:19;;;;;;;1.15;0.30;;;;;;;12.83;38.60;102404.88;5095551;28;20047;-74
2023/10/08 10:17:47;;;;;;;0.50;0.20;;;;;;;12.99;39.04;102394.00;5093017;28;20036;-74
2023/10/08 10:20:13;;;;;;;0.47;0.30;;;;;;;12.83;38.42;102408.44;5093487;28;20131;-73
2023/10/08 10:22:42;;;;;;;0.55;0.20;;;;;;;12.97;38.02;102406.84;5094020;28;20097;-73
2023/10/08 10:25:17;;;;;;;1.27;0.30;;;;;;;13.20;38.69;102408.75;5091523;28;20039;-73
2023/10/08 10:28:06;;;;;;;0.60;0.28;;;;;;;13.22;36.69;102402.16;5090948;28;20028;-73
2023/10/08 10:30:32;;;;;;;0.40;0.25;;;;;;;13.10;38.40;102408.97;5095426;28;20548;-74
2023/10/08 10:33:00;;;;;;;0.30;0.20;;;;;;;13.15;38.57;102388.53;5074707;28;20054;-73
2023/10/08 10:35:27;;;;;;;0.55;0.28;;;;;;;13.19;38.15;102377.34;5092157;28;20028;-71
2023/10/08 10:37:55;;;;;;;0.75;0.28;;;;;;;12.87;38.38;102382.75;5090777;28;20027;-72
2023/10/08 10:40:39;;;;;;;1.50;0.38;;;;;;;12.96;37.45;102386.25;5075388;28;20028;-74
2023/10/08 10:43:15;;;;;;;0.90;0.22;;;;;;;13.10;37.14;102385.50;5077882;28;20035;-74
2023/10/08 10:45:43;;;;;;;0.77;0.30;;;;;;;13.08;37.15;102392.13;5092636;28;20028;-71
2023/10/08 10:53:33;;;;;;;1.48;0.20;;;;;;;13.50;38.42;102374.63;5091774;28;20051;-71
2023/10/08 10:56:09;;;;;;;0.63;0.28;;;;;;;13.37;38.17;102369.81;5090947;28;20028;-73
2023/10/08 10:58:39;;;;;;;0.35;0.20;;;;;;;13.29;37.91;102367.19;5074367;28;20024;-73
2023/10/08 11:01:15;;;;;;;1.40;0.20;;;;;;;13.19;37.44;102369.25;5092595;28;20063;-73
2023/10/08 11:03:51;;;;;;;0.50;0.20;;;;;;;13.14;37.89;102353.56;5092704;28;20054;-73
2023/10/08 11:06:22;;;;;;;0.40;0.20;;;;;;;13.37;38.46;102376.06;5092160;28;20051;-73
2023/10/08 11:08:52;;;;;;;0.25;0.15;;;;;;;13.44;38.74;102381.59;5091180;28;20016;-73
2023/10/08 11:11:18;;;;;;;0.50;0.30;;;;;;;13.10;37.78;102369.28;5096292;28;20023;-73
2023/10/08 11:13:51;;;;;;;0.73;0.32;;;;;;;13.28;38.01;102373.63;5093417;28;20062;-73
2023/10/08 11:16:19;;;;;;;0.25;0.20;;;;;;;13.44;38.39;102380.75;5092774;28;20046;-74
2023/10/08 11:18:57;;;;;;;0.35;0.20;;;;;;;13.56;37.91;102377.47;5097356;28;20126;-73
2023/10/08 11:21:24;;;;;;;0.50;0.20;;;;;;;13.37;38.16;102388.75;5061467;28;20060;-73
2023/10/08 11:23:55;;;;;;;1.05;0.20;;;;;;;13.36;38.16;102393.31;5094840;28;20047;-74
2023/10/08 11:26:31;;;;;;;0.93;0.40;;;;;;;13.38;38.28;102393.16;5081522;28;20077;-73
2023/10/08 11:29:00;;;;;;;0.47;0.30;;;;;;;13.52;38.87;102394.25;5095819;28;20134;-73
2023/10/08 11:31:27;;;;;;;1.85;0.30;;;;;;;13.44;37.49;102380.75;5092254;28;20028;-73
2023/10/08 11:33:59;;;;;;;0.30;0.15;;;;;;;13.44;37.11;102381.59;5091952;28;20149;-73
2023/10/08 11:36:40;;;;;;;0.20;0.20;;;;;;;13.21;37.00;102380.72;5093106;28;20063;-74
2023/10/08 11:39:23;;;;;;;0.50;0.20;;;;;;;13.62;37.05;102384.88;5073771;28;20023;-73
2023/10/08 11:42:03;;;;;;;1.20;0.25;;;;;;;13.34;37.06;102386.41;5093157;28;20058;-73
2023/10/08 11:44:35;;;;;;;0.57;0.22;;;;;;;13.32;36.41;102383.91;5091716;28;20028;-73
2023/10/08 11:47:11;;;;;;;0.95;0.30;;;;;;;13.64;36.31;102387.38;5090402;28;20020;-74
2023/10/08 11:49:46;;;;;;;0.30;0.10;;;;;;;13.80;36.78;102378.28;5091545;28;20043;-74
2023/10/08 11:52:15;;;;;;;0.30;0.20;;;;;;;13.54;37.37;102360.59;5096868;28;20126;-73
2023/10/08 11:54:42;;;;;;;0.73;0.10;;;;;;;13.46;37.80;102362.50;5094874;28;20024;-73
2023/10/08 11:57:09;;;;;;;0.57;0.20;;;;;;;13.34;36.41;102360.22;5091015;28;20035;-74
2023/10/08 11:59:39;;;;;;;0.47;0.30;;;;;;;13.26;36.49;102348.63;5090935;28;20113;-74
2023/10/08 12:02:06;;;;;;;0.70;0.20;;;;;;;13.61;36.51;102366.97;5092548;28;20024;-73
2023/10/08 12:04:31;;;;;;;0.15;0.15;;;;;;;13.53;36.24;102372.41;5098648;28;20522;-73
2023/10/08 12:06:57;;;;;;;0.40;0.20;;;;;;;13.59;36.53;102357.34;5098838;28;20059;-73
2023/10/08 12:09:27;;;;;;;0.20;0.20;;;;;;;13.65;36.52;102355.78;5095374;28;20487;-73
2023/10/08 12:11:52;;;;;;;0.60;0.30;;;;;;;13.82;36.72;102368.97;5080206;28;20053;-74
2023/10/08 12:14:18;;;;;;;0.30;0.20;;;;;;;13.88;36.42;102366.59;5074382;28;20040;-73
2023/10/08 12:16:45;;;;;;;2.95;0.20;;;;;;;13.79;36.65;102366.63;5076761;28;20035;-73
2023/10/08 12:19:17;;;;;;;1.20;0.22;;;;;;;13.60;36.64;102377.94;5093317;28;20040;-74
2023/10/08 12:21:46;;;;;;;0.57;0.22;;;;;;;13.51;36.11;102379.88;5092640;28;20020;-73
2023/10/08 12:24:12;;;;;;;0.50;0.20;;;;;;;13.49;35.68;102357.59;5091867;28;20024;-74
2023/10/08 12:26:42;;;;;;;0.45;0.20;;;;;;;13.69;36.10;102335.44;5092653;28;20032;-73
2023/10/08 12:29:08;;;;;;;0.38;0.20;;;;;;;13.87;36.32;102338.66;5075500;28;20491;-73
2023/10/08 12:31:33;;;;;;;0.20;0.15;;;;;;;14.00;36.79;102354.25;5073711;28;20035;-73
2023/10/08 12:34:00;;;;;;;0.57;0.20;;;;;;;13.76;37.61;102355.34;5074071;28;20024;-73
2023/10/08 12:36:27;;;;;;;0.50;0.20;;;;;;;13.40;36.42;102358.66;5073749;28;20035;-72
2023/10/08 12:38:59;;;;;;;0.47;0.20;;;;;;;13.38;36.40;102355.31;5091911;28;20028;-73
2023/10/08 12:41:28;;;;;;;0.50;0.28;;;;;;;13.38;38.16;102349.91;5090866;28;20130;-74
2023/10/08 12:43:54;;;;;;;0.20;0.10;;;;;;;13.34;37.59;102343.16;5090856;28;20039;-73